Time;durP1;ratioP1;P1;durP2;ratioP2;P2;SDS_P1;SDS_P2;PMS_P1;PMS_P2;Temp;Humidity;BMP_temperature;BMP_pressure;BME280_temperature;BME280_humidity;BME280_pressure;Samples;Min_cycle;Max_cycle;Signal;HPM_P1;HPM_P2
2022/06/08 00:01:37;;;;;;;41.60;30.77;;;;;;;14.00;100.00;100967.94;5032072;28;20029;-52
2022/06/08 00:04:04;;;;;;;42.88;30.60;;;;;;;13.92;100.00;100965.97;5032428;28;20100;-54
2022/06/08 00:06:30;;;;;;;41.33;30.42;;;;;;;13.88;100.00;100965.81;5032197;28;20029;-54
2022/06/08 00:08:56;;;;;;;43.67;31.85;;;;;;;13.81;100.00;100966.28;5032979;28;20036;-54
2022/06/08 00:11:21;;;;;;;41.80;30.80;;;;;;;13.77;100.00;100957.00;5032286;28;20372;-54
2022/06/08 00:13:47;;;;;;;41.97;30.42;;;;;;;13.72;100.00;100959.91;5032710;28;20036;-54
2022/06/08 00:16:13;;;;;;;44.65;32.22;;;;;;;13.69;100.00;100958.59;5031293;28;20033;-55
2022/06/08 00:18:40;;;;;;;45.60;32.42;;;;;;;13.70;100.00;100959.41;5032729;28;20025;-52
2022/06/08 00:21:07;;;;;;;43.97;31.23;;;;;;;13.70;100.00;100959.41;5031707;28;20025;-54
2022/06/08 00:23:32;;;;;;;44.75;32.10;;;;;;;13.70;100.00;100946.34;5031909;28;20032;-52
2022/06/08 00:25:57;;;;;;;44.40;32.28;;;;;;;13.74;100.00;100952.06;5031761;28;20050;-53
2022/06/08 00:28:23;;;;;;;44.88;32.72;;;;;;;13.72;100.00;100943.22;5031750;28;20108;-53
2022/06/08 00:30:48;;;;;;;42.80;32.00;;;;;;;13.72;100.00;100944.06;5031787;28;20032;-53
2022/06/08 00:33:13;;;;;;;45.92;32.97;;;;;;;13.68;100.00;100942.25;5039125;28;20021;-51
2022/06/08 00:35:39;;;;;;;45.00;31.90;;;;;;;13.66;100.00;100939.78;5051211;28;20028;-55
2022/06/08 00:38:05;;;;;;;44.88;33.20;;;;;;;13.64;100.00;100930.13;5051963;28;20491;-52
2022/06/08 00:40:39;;;;;;;44.03;33.60;;;;;;;13.60;100.00;100931.94;5051974;28;20388;-55
2022/06/08 00:43:04;;;;;;;43.78;32.83;;;;;;;13.63;100.00;100931.28;5051987;28;20391;-52
2022/06/08 00:45:30;;;;;;;43.28;32.38;;;;;;;13.64;100.00;100935.69;5052261;28;20029;-55
2022/06/08 00:48:01;;;;;;;44.17;33.83;;;;;;;13.65;100.00;100937.34;5051432;28;20025;-55
2022/06/08 00:50:33;;;;;;;46.47;34.75;;;;;;;13.63;100.00;100925.72;5051137;28;20040;-54
2022/06/08 00:53:00;;;;;;;44.55;33.88;;;;;;;13.61;100.00;100920.50;5052042;28;20029;-56
2022/06/08 00:55:28;;;;;;;46.03;34.70;;;;;;;13.56;100.00;100910.34;5052109;28;20040;-55
2022/06/08 00:58:03;;;;;;;47.28;34.95;;;;;;;13.51;100.00;100924.38;5051715;28;20032;-55
2022/06/08 01:00:33;;;;;;;46.40;34.42;;;;;;;13.52;100.00;100923.25;5051762;28;20025;-54
2022/06/08 01:02:59;;;;;;;45.53;34.78;;;;;;;13.48;100.00;100919.50;5051722;28;20429;-55
2022/06/08 01:05:29;;;;;;;43.70;33.22;;;;;;;13.46;100.00;100916.22;5051331;28;20040;-54
2022/06/08 01:08:02;;;;;;;49.78;35.80;;;;;;;13.41;100.00;100911.63;5051463;28;20052;-52
2022/06/08 01:10:43;;;;;;;46.10;34.92;;;;;;;13.39;100.00;100910.31;5051565;28;20029;-50
2022/06/08 01:13:09;;;;;;;45.08;32.95;;;;;;;13.44;100.00;100910.16;5051188;28;20021;-52
2022/06/08 01:15:39;;;;;;;45.75;33.45;;;;;;;13.40;100.00;100898.06;5051667;28;20044;-53
2022/06/08 01:18:05;;;;;;;45.58;33.70;;;;;;;13.39;100.00;100904.78;5051850;28;20102;-52
2022/06/08 01:20:30;;;;;;;44.35;32.28;;;;;;;13.35;100.00;100907.34;5051120;28;20471;-52
2022/06/08 01:22:56;;;;;;;45.22;33.92;;;;;;;13.30;100.00;100904.72;5051131;28;20036;-52
2022/06/08 01:25:22;;;;;;;43.33;32.40;;;;;;;13.27;100.00;100897.03;5050655;28;20120;-50
2022/06/08 01:27:50;;;;;;;45.78;33.72;;;;;;;13.23;100.00;100891.28;5050970;28;20481;-51
2022/06/08 01:30:34;;;;;;;46.95;34.13;;;;;;;13.21;100.00;100884.41;5051408;28;20429;-52
2022/06/08 01:33:25;;;;;;;45.92;33.60;;;;;;;13.20;100.00;100877.22;5051108;28;20029;-50
2022/06/08 01:36:03;;;;;;;44.95;32.95;;;;;;;13.18;100.00;100872.00;5046495;28;20479;-50
2022/06/08 01:38:44;;;;;;;46.50;33.05;;;;;;;13.15;100.00;100872.63;5051327;28;20033;-52
2022/06/08 01:41:50;;;;;;;48.13;34.38;;;;;;;13.15;100.00;100869.06;5051467;28;20032;-52
2022/06/08 01:44:29;;;;;;;45.58;32.35;;;;;;;13.09;100.00;100866.41;5042845;28;20040;-52
2022/06/08 01:47:09;;;;;;;45.05;33.47;;;;;;;13.05;100.00;100867.38;5055384;28;20044;-52
2022/06/08 01:50:20;;;;;;;46.25;33.75;;;;;;;13.01;100.00;100852.53;5055710;28;20025;-52
2022/06/08 01:53:19;;;;;;;47.25;34.42;;;;;;;12.95;100.00;100849.88;5018151;28;20049;-53
2022/06/08 01:56:00;;;;;;;45.90;34.38;;;;;;;12.90;100.00;100846.44;5054145;28;20028;-53
2022/06/08 01:58:44;;;;;;;43.10;32.40;;;;;;;12.86;100.00;100839.91;5053457;28;20025;-54
2022/06/08 02:01:33;;;;;;;46.00;34.10;;;;;;;12.80;100.00;100842.81;5053764;28;20120;-53
2022/06/08 02:04:07;;;;;;;43.63;32.92;;;;;;;12.82;100.00;100838.91;5054969;28;20029;-54
2022/06/08 02:06:43;;;;;;;45.47;33.55;;;;;;;12.78;100.00;100839.56;5055059;28;20025;-52
2022/06/08 02:09:34;;;;;;;45.58;33.22;;;;;;;12.70;100.00;100826.47;5054753;28;20033;-51
2022/06/08 02:12:04;;;;;;;46.05;33.78;;;;;;;12.71;100.00;100830.06;5054723;28;20029;-50
2022/06/08 02:14:39;;;;;;;44.28;32.20;;;;;;;12.62;100.00;100816.97;5054428;28;20364;-53
2022/06/08 02:17:11;;;;;;;47.63;35.28;;;;;;;12.65;100.00;100812.72;5054968;28;20037;-54
2022/06/08 02:19:44;;;;;;;45.67;34.72;;;;;;;12.61;100.00;100812.53;5054746;28;20108;-48
2022/06/08 02:22:26;;;;;;;43.60;32.13;;;;;;;12.56;100.00;100806.31;5054323;28;20404;-48
2022/06/08 02:25:01;;;;;;;44.10;32.22;;;;;;;12.56;100.00;100800.78;5053174;28;20090;-47
2022/06/08 02:27:35;;;;;;;43.97;31.05;;;;;;;12.57;100.00;100791.31;5053452;28;20040;-49
2022/06/08 02:30:07;;;;;;;46.50;32.58;;;;;;;12.56;100.00;100787.72;5054315;28;20383;-53
2022/06/08 02:35:42;;;;;;;42.33;30.65;;;;;;;12.53;100.00;100790.31;5054735;28;20041;-53
2022/06/08 02:38:11;;;;;;;42.42;30.73;;;;;;;12.50;100.00;100785.41;5054036;28;20078;-50
2022/06/08 02:40:42;;;;;;;41.92;30.15;;;;;;;12.45;100.00;100780.81;5054434;28;20029;-50
2022/06/08 02:43:15;;;;;;;42.05;30.95;;;;;;;12.44;100.00;100779.19;5054618;28;20025;-50
2022/06/08 02:45:43;;;;;;;41.47;30.30;;;;;;;12.40;100.00;100775.41;5054232;28;20030;-53
2022/06/08 02:48:12;;;;;;;38.30;28.52;;;;;;;12.36;100.00;100775.22;5052728;28;20029;-51
2022/06/08 02:50:48;;;;;;;40.55;28.13;;;;;;;12.32;100.00;100774.25;5054102;28;20099;-53
2022/06/08 02:53:16;;;;;;;40.67;28.27;;;;;;;12.34;100.00;100777.50;5054322;28;20037;-53
2022/06/08 02:56:06;;;;;;;40.58;28.70;;;;;;;12.33;100.00;100773.94;5054131;28;20025;-49
2022/06/08 02:58:52;;;;;;;38.65;28.30;;;;;;;12.26;100.00;100759.72;5053918;28;20017;-50
2022/06/08 03:01:33;;;;;;;40.15;27.33;;;;;;;12.31;100.00;100773.41;5053461;28;20104;-50
2022/06/08 03:04:04;;;;;;;39.67;27.23;;;;;;;12.31;100.00;100770.66;5053635;28;20083;-52
2022/06/08 03:06:42;;;;;;;39.03;27.55;;;;;;;12.31;100.00;100767.88;5054103;28;20166;-52
2022/06/08 03:09:12;;;;;;;39.55;28.30;;;;;;;12.30;100.00;100763.47;5053643;28;20029;-53
2022/06/08 03:11:41;;;;;;;40.00;28.13;;;;;;;12.28;100.00;100757.41;5052448;28;20035;-56
2022/06/08 03:14:13;;;;;;;37.80;26.45;;;;;;;12.32;100.00;100763.97;5052904;28;20021;-50
2022/06/08 03:16:56;;;;;;;36.47;26.50;;;;;;;12.34;100.00;100755.31;5053095;28;20025;-55
2022/06/08 03:19:22;;;;;;;37.58;25.90;;;;;;;12.33;100.00;100748.97;5053405;28;20036;-54
2022/06/08 03:21:47;;;;;;;37.33;26.67;;;;;;;12.35;100.00;100737.53;5052907;28;20032;-52
2022/06/08 03:24:13;;;;;;;37.10;26.77;;;;;;;12.36;100.00;100743.91;5053451;28;20108;-51
2022/06/08 03:26:44;;;;;;;36.10;25.38;;;;;;;12.33;100.00;100746.19;5052436;28;20507;-54
2022/06/08 03:29:09;;;;;;;34.92;25.88;;;;;;;12.39;100.00;100749.63;5052433;28;20052;-53
2022/06/08 03:31:35;;;;;;;35.55;24.55;;;;;;;12.39;100.00;100743.25;5052388;28;20475;-55
2022/06/08 03:34:00;;;;;;;35.25;25.48;;;;;;;12.40;100.00;100751.28;5052626;28;20017;-54
2022/06/08 03:36:26;;;;;;;32.88;23.77;;;;;;;12.41;100.00;100752.06;5052858;28;20017;-54
2022/06/08 03:38:51;;;;;;;33.30;23.40;;;;;;;12.43;100.00;100752.59;5053194;28;20033;-55
2022/06/08 03:41:16;;;;;;;34.90;23.10;;;;;;;12.44;100.00;100751.44;5053534;28;20029;-51
2022/06/08 03:43:42;;;;;;;34.13;23.48;;;;;;;12.44;100.00;100743.13;5052839;28;20025;-53
2022/06/08 03:46:10;;;;;;;32.55;23.00;;;;;;;12.51;100.00;100753.75;5053261;28;20029;-54
2022/06/08 03:48:37;;;;;;;31.38;22.20;;;;;;;12.61;100.00;100757.03;5052284;28;20029;-52
2022/06/08 03:51:02;;;;;;;33.65;23.33;;;;;;;12.73;100.00;100753.63;5052758;28;20033;-54
2022/06/08 03:53:42;;;;;;;31.52;20.80;;;;;;;12.94;100.00;100744.69;5052742;28;20035;-54
2022/06/08 03:56:09;;;;;;;31.02;21.23;;;;;;;13.07;100.00;100754.03;5052602;28;20033;-53
2022/06/08 03:58:35;;;;;;;30.67;20.70;;;;;;;13.16;100.00;100759.59;5052619;28;20131;-51
2022/06/08 04:01:00;;;;;;;29.50;20.52;;;;;;;13.18;100.00;100758.13;5052490;28;20104;-50
2022/06/08 04:03:26;;;;;;;29.45;20.38;;;;;;;13.25;100.00;100765.97;5052484;28;20099;-53
2022/06/08 04:05:51;;;;;;;29.60;18.75;;;;;;;13.25;100.00;100754.84;5051799;28;20021;-49
2022/06/08 04:08:16;;;;;;;28.92;18.85;;;;;;;13.24;100.00;100759.59;5052426;28;20048;-54
2022/06/08 04:10:42;;;;;;;28.00;19.13;;;;;;;13.26;100.00;100759.28;5052840;28;20017;-53
2022/06/08 04:13:07;;;;;;;28.00;19.42;;;;;;;13.26;100.00;100754.53;5052290;28;20450;-51
2022/06/08 04:15:41;;;;;;;26.00;18.85;;;;;;;13.27;100.00;100756.16;5052923;28;20526;-53
2022/06/08 04:18:07;;;;;;;27.77;18.70;;;;;;;13.32;100.00;100757.16;5052184;28;20107;-51
2022/06/08 04:20:33;;;;;;;28.85;18.92;;;;;;;13.34;100.00;100757.63;5052346;28;20057;-54
2022/06/08 04:23:00;;;;;;;26.88;19.23;;;;;;;13.37;100.00;100757.78;5051522;28;20029;-53
2022/06/08 04:25:25;;;;;;;28.08;19.48;;;;;;;13.39;100.00;100736.06;5052642;28;20037;-54
2022/06/08 04:27:50;;;;;;;26.45;18.65;;;;;;;13.43;100.00;100743.75;5051823;28;20159;-52
2022/06/08 04:30:16;;;;;;;26.83;18.23;;;;;;;13.44;100.00;100740.66;5052238;28;20029;-53
2022/06/08 04:32:41;;;;;;;27.83;19.45;;;;;;;13.50;100.00;100741.31;5051885;28;20029;-52
2022/06/08 04:35:07;;;;;;;27.08;19.05;;;;;;;13.55;100.00;100741.94;5051871;28;20028;-53
2022/06/08 04:37:37;;;;;;;27.30;18.85;;;;;;;13.58;100.00;100748.81;5051900;28;20041;-53
2022/06/08 04:40:04;;;;;;;25.85;17.83;;;;;;;13.62;100.00;100747.00;5052563;28;20497;-51
2022/06/08 04:42:30;;;;;;;25.92;18.58;;;;;;;13.68;100.00;100751.25;5051680;28;20056;-51
2022/06/08 04:44:55;;;;;;;27.50;18.83;;;;;;;13.71;100.00;100747.81;5052131;28;20064;-53
2022/06/08 04:47:21;;;;;;;24.83;16.80;;;;;;;13.80;100.00;100744.19;5052035;28;20364;-50
2022/06/08 04:49:46;;;;;;;24.92;16.90;;;;;;;13.84;100.00;100732.09;5051620;28;20538;-53
2022/06/08 04:52:11;;;;;;;23.80;16.42;;;;;;;13.95;100.00;100734.50;5051871;28;20032;-54
2022/06/08 04:54:36;;;;;;;25.27;17.48;;;;;;;14.06;100.00;100730.22;5051946;28;20025;-53
2022/06/08 04:57:02;;;;;;;25.15;16.73;;;;;;;14.16;100.00;100727.06;5052199;28;20113;-53
2022/06/08 04:59:27;;;;;;;23.75;15.98;;;;;;;14.26;100.00;100711.16;5052015;28;20100;-53
2022/06/08 05:01:53;;;;;;;22.92;16.02;;;;;;;14.38;100.00;100708.47;5051758;28;20036;-55
2022/06/08 05:04:18;;;;;;;23.58;15.25;;;;;;;14.47;100.00;100708.44;5051320;28;20100;-57
2022/06/08 05:06:45;;;;;;;23.38;15.70;;;;;;;14.55;100.00;100701.19;5051801;28;20112;-55
2022/06/08 05:09:10;;;;;;;23.42;15.55;;;;;;;14.57;100.00;100707.22;5051225;28;20511;-53
2022/06/08 05:11:35;;;;;;;22.73;15.43;;;;;;;14.62;100.00;100713.41;5051427;28;20055;-52
2022/06/08 05:14:01;;;;;;;21.98;15.27;;;;;;;14.66;100.00;100711.63;5052017;28;20048;-51
2022/06/08 05:16:26;;;;;;;22.45;14.88;;;;;;;14.73;100.00;100707.47;5051240;28;20498;-54
2022/06/08 05:18:51;;;;;;;23.63;14.65;;;;;;;14.82;100.00;100705.44;5051653;28;20054;-54
2022/06/08 05:21:17;;;;;;;21.75;14.18;;;;;;;14.87;100.00;100699.69;5051764;28;20025;-54
2022/06/08 05:23:43;;;;;;;22.42;14.38;;;;;;;14.94;100.00;100687.97;5051949;28;20495;-55
2022/06/08 05:26:09;;;;;;;23.33;14.77;;;;;;;14.93;100.00;100689.13;5051920;28;20037;-54
2022/06/08 05:28:35;;;;;;;20.83;13.73;;;;;;;14.96;100.00;100682.91;5051807;28;20091;-52
2022/06/08 05:31:01;;;;;;;21.80;14.30;;;;;;;14.98;100.00;100691.72;5051705;28;20118;-52
2022/06/08 05:33:28;;;;;;;21.40;13.90;;;;;;;15.02;100.00;100684.31;5051218;28;20052;-54
2022/06/08 05:35:54;;;;;;;23.08;14.15;;;;;;;15.07;100.00;100680.50;5051709;28;20127;-53
2022/06/08 05:38:20;;;;;;;21.88;14.15;;;;;;;15.12;100.00;100680.31;5051477;28;20021;-54
2022/06/08 05:40:46;;;;;;;21.02;13.88;;;;;;;15.16;100.00;100672.06;5051991;28;20032;-54
2022/06/08 05:43:13;;;;;;;21.30;14.23;;;;;;;15.14;100.00;100669.66;5052018;28;20029;-54
2022/06/08 05:45:39;;;;;;;23.35;14.65;;;;;;;15.13;100.00;100663.25;5051606;28;20086;-55
2022/06/08 05:48:05;;;;;;;22.23;14.98;;;;;;;15.15;100.00;100662.91;5051132;28;20506;-57
2022/06/08 05:50:30;;;;;;;21.45;14.63;;;;;;;15.20;100.00;100661.91;5051299;28;20028;-56
2022/06/08 05:52:56;;;;;;;22.50;14.27;;;;;;;15.19;100.00;100657.47;5051473;28;20053;-56
2022/06/08 05:55:23;;;;;;;21.65;14.50;;;;;;;15.20;100.00;100651.56;5051642;28;20367;-56
2022/06/08 05:57:51;;;;;;;22.75;14.48;;;;;;;15.29;100.00;100651.47;5051387;28;20396;-55
2022/06/08 06:00:20;;;;;;;22.45;14.52;;;;;;;15.34;100.00;100645.66;5051190;28;20025;-55
2022/06/08 06:02:45;;;;;;;21.88;14.27;;;;;;;15.40;100.00;100649.84;5051407;28;20040;-57
2022/06/08 06:05:13;;;;;;;22.25;14.88;;;;;;;15.44;100.00;100647.22;5035342;28;20025;-56
2022/06/08 06:07:39;;;;;;;22.85;14.80;;;;;;;15.49;99.92;100643.41;5029438;28;20026;-56
2022/06/08 06:10:06;;;;;;;21.10;14.07;;;;;;;15.54;99.78;100643.97;5029707;28;20087;-56
2022/06/08 06:12:32;;;;;;;23.48;14.23;;;;;;;15.57;99.92;100642.50;5029084;28;20040;-56
2022/06/08 06:15:01;;;;;;;20.52;13.32;;;;;;;15.66;99.26;100642.38;5029159;28;20104;-56
2022/06/08 06:17:29;;;;;;;21.98;13.75;;;;;;;15.67;98.87;100633.69;5031000;28;20383;-56
2022/06/08 06:19:56;;;;;;;20.35;12.65;;;;;;;15.74;98.75;100633.09;5030656;28;20037;-55
2022/06/08 06:22:22;;;;;;;20.25;13.68;;;;;;;15.82;99.39;100629.38;5032275;28;20025;-56
2022/06/08 06:24:47;;;;;;;21.05;13.65;;;;;;;15.87;98.18;100639.56;5031502;28;20033;-56
2022/06/08 06:27:12;;;;;;;20.55;12.52;;;;;;;15.90;97.72;100641.63;5031306;28;20049;-56
2022/06/08 06:29:38;;;;;;;20.83;13.52;;;;;;;15.89;97.67;100628.84;5032013;28;20091;-56
2022/06/08 06:32:15;;;;;;;20.63;13.07;;;;;;;15.88;97.31;100628.03;5031593;28;20389;-56
2022/06/08 06:34:40;;;;;;;20.95;13.05;;;;;;;15.90;97.60;100639.66;5032525;28;20064;-54
2022/06/08 06:37:06;;;;;;;21.08;12.70;;;;;;;15.92;97.82;100636.53;5032460;28;20421;-56
2022/06/08 06:39:31;;;;;;;18.75;12.13;;;;;;;15.93;97.22;100649.31;5032204;28;20029;-56
2022/06/08 06:41:58;;;;;;;21.13;13.10;;;;;;;15.89;97.54;100640.81;5030977;28;20061;-53
2022/06/08 06:44:24;;;;;;;20.55;12.68;;;;;;;15.89;97.44;100640.00;5032509;28;20151;-56
2022/06/08 06:46:49;;;;;;;19.20;12.52;;;;;;;15.86;96.68;100649.88;5034123;28;20061;-55
2022/06/08 06:49:14;;;;;;;20.13;12.45;;;;;;;15.86;97.27;100649.06;5034424;28;20428;-56
2022/06/08 06:51:40;;;;;;;20.13;12.75;;;;;;;15.93;96.79;100654.88;5034465;28;20033;-56
2022/06/08 06:54:09;;;;;;;19.52;12.40;;;;;;;15.99;96.68;100647.09;5034907;28;20025;-56
2022/06/08 06:56:35;;;;;;;19.42;11.70;;;;;;;16.05;95.70;100643.75;5034720;28;20030;-56
2022/06/08 06:59:01;;;;;;;21.50;13.18;;;;;;;16.23;96.69;100640.72;5034694;28;20549;-55
2022/06/08 07:01:26;;;;;;;21.83;13.23;;;;;;;16.40;95.44;100639.63;5034352;28;20079;-55
2022/06/08 07:03:52;;;;;;;19.65;12.40;;;;;;;16.59;94.37;100635.41;5032466;28;20368;-56
2022/06/08 07:06:17;;;;;;;19.42;12.70;;;;;;;16.77;94.50;100627.56;5032490;28;20029;-56
2022/06/08 07:08:43;;;;;;;20.40;12.25;;;;;;;16.86;93.17;100630.22;5032229;28;20080;-55
2022/06/08 07:13:55;;;;;;;22.05;12.68;;;;;;;17.21;91.08;100624.06;5032445;28;20095;-58
2022/06/08 07:16:21;;;;;;;20.40;12.57;;;;;;;17.40;91.69;100614.97;5032176;28;20026;-55
2022/06/08 07:18:46;;;;;;;20.70;12.30;;;;;;;17.54;90.15;100623.75;5035702;28;20025;-56
2022/06/08 07:21:12;;;;;;;20.92;11.85;;;;;;;17.62;88.39;100622.75;5040381;28;20472;-55
2022/06/08 07:23:38;;;;;;;21.23;12.48;;;;;;;17.71;88.69;100621.78;5039703;28;20026;-57
2022/06/08 07:26:03;;;;;;;20.35;12.48;;;;;;;17.82;89.10;100611.66;5041281;28;20575;-54
2022/06/08 07:28:29;;;;;;;19.33;12.30;;;;;;;17.85;88.15;100607.31;5044286;28;20520;-55
2022/06/08 07:30:55;;;;;;;19.33;12.05;;;;;;;17.95;87.41;100608.78;5051803;28;20024;-54
2022/06/08 07:33:20;;;;;;;21.40;12.10;;;;;;;17.97;86.53;100609.25;5051619;28;20067;-55
2022/06/08 07:35:46;;;;;;;19.58;11.77;;;;;;;18.01;86.04;100607.34;5051687;28;20033;-58
2022/06/08 07:38:12;;;;;;;20.38;12.52;;;;;;;18.05;86.89;100609.06;5051441;28;20028;-54
2022/06/08 07:40:37;;;;;;;19.38;11.45;;;;;;;18.16;86.14;100605.69;5050359;28;20510;-55
2022/06/08 07:43:03;;;;;;;20.40;10.63;;;;;;;18.21;83.65;100605.41;5051715;28;20071;-56
2022/06/08 07:45:28;;;;;;;19.42;10.60;;;;;;;18.15;82.25;100602.06;5051523;28;20057;-56
2022/06/08 07:50:37;;;;;;;20.35;10.82;;;;;;;18.03;83.94;100600.22;5051788;28;20446;-56
2022/06/08 07:53:02;;;;;;;19.83;10.73;;;;;;;18.04;83.47;100610.22;5051374;28;20040;-54
2022/06/08 07:55:28;;;;;;;20.00;10.70;;;;;;;18.04;84.41;100612.22;5051295;28;20096;-58
2022/06/08 07:57:53;;;;;;;19.15;10.85;;;;;;;18.05;84.10;100606.25;5049562;28;20111;-56
2022/06/08 08:00:21;;;;;;;17.80;10.40;;;;;;;18.11;83.51;100603.16;5051085;28;20033;-56
2022/06/08 08:02:46;;;;;;;20.08;10.07;;;;;;;18.17;82.51;100610.94;5050288;28;20033;-56
2022/06/08 08:05:13;;;;;;;17.77;10.45;;;;;;;18.34;83.61;100600.50;5050032;28;20033;-56
2022/06/08 08:07:40;;;;;;;18.85;10.55;;;;;;;18.54;81.44;100610.56;5050862;28;20052;-55
2022/06/08 08:10:08;;;;;;;19.85;10.50;;;;;;;18.66;81.39;100603.22;5049950;28;20519;-56
2022/06/08 08:12:35;;;;;;;19.40;10.70;;;;;;;18.75;81.74;100608.59;5050811;28;20029;-56
2022/06/08 08:15:01;;;;;;;18.55;9.98;;;;;;;18.84;79.22;100609.19;5050907;28;20035;-56
2022/06/08 08:17:26;;;;;;;20.92;10.60;;;;;;;18.90;79.47;100601.28;5050862;28;20025;-56
2022/06/08 08:19:51;;;;;;;18.48;9.48;;;;;;;18.99;79.11;100604.69;5050907;28;20029;-56
2022/06/08 08:22:19;;;;;;;17.90;9.57;;;;;;;18.99;78.10;100599.91;5050495;28;20387;-55
2022/06/08 08:24:45;;;;;;;17.33;9.93;;;;;;;19.09;78.95;100601.28;5050753;28;20068;-55
2022/06/08 08:27:11;;;;;;;17.75;10.15;;;;;;;19.17;78.74;100597.47;5050421;28;20092;-55
2022/06/08 08:29:36;;;;;;;18.90;10.05;;;;;;;19.18;77.64;100593.47;5050682;28;20029;-56
2022/06/08 08:32:02;;;;;;;17.90;10.10;;;;;;;19.30;77.48;100586.88;5050594;28;20391;-56
2022/06/08 08:34:27;;;;;;;18.85;9.98;;;;;;;19.35;76.45;100594.19;5050003;28;20108;-54
2022/06/08 08:36:53;;;;;;;16.90;10.00;;;;;;;19.34;76.97;100589.75;5050551;28;20502;-55
2022/06/08 08:39:19;;;;;;;16.35;9.45;;;;;;;19.27;76.34;100598.03;5050806;28;20104;-55
2022/06/08 08:44:29;;;;;;;18.08;9.65;;;;;;;19.18;74.21;100587.06;5050949;28;20040;-55
2022/06/08 08:47:02;;;;;;;17.23;10.18;;;;;;;19.02;74.92;100599.19;5050564;28;20041;-55
2022/06/08 08:49:31;;;;;;;17.40;9.85;;;;;;;18.88;75.99;100596.06;5050407;28;20039;-54
2022/06/08 08:52:14;;;;;;;16.73;9.95;;;;;;;18.74;76.21;100596.56;5049863;28;20029;-53
2022/06/08 08:54:50;;;;;;;20.15;10.70;;;;;;;18.58;76.05;100588.22;5050518;28;20475;-55
2022/06/08 08:57:20;;;;;;;19.55;10.45;;;;;;;18.48;77.10;100586.81;5047088;28;20060;-55
2022/06/08 08:59:49;;;;;;;18.63;10.25;;;;;;;18.35;77.89;100588.94;5049887;28;20108;-56
2022/06/08 09:05:21;;;;;;;17.63;10.13;;;;;;;18.34;78.63;100592.09;5050057;28;20446;-55
2022/06/08 09:07:47;;;;;;;17.98;10.05;;;;;;;18.36;78.93;100593.38;5050084;28;20056;-56
2022/06/08 09:10:22;;;;;;;18.65;10.70;;;;;;;18.39;78.64;100592.63;5049842;28;20062;-55
2022/06/08 09:12:48;;;;;;;19.65;10.55;;;;;;;18.45;76.96;100589.56;5049839;28;20037;-57
2022/06/08 09:15:18;;;;;;;19.05;9.70;;;;;;;18.38;77.27;100599.41;5049978;28;20104;-55
2022/06/08 09:17:56;;;;;;;18.60;10.50;;;;;;;18.42;77.81;100593.06;5050051;28;20033;-56
2022/06/08 09:20:31;;;;;;;17.10;10.20;;;;;;;18.46;77.59;100596.78;5049858;28;20396;-55
2022/06/08 09:23:01;;;;;;;19.10;10.60;;;;;;;18.51;78.68;100593.69;5050064;28;20594;-56
2022/06/08 09:25:38;;;;;;;19.42;10.80;;;;;;;18.63;79.76;100592.72;5049843;28;20056;-57
2022/06/08 09:28:24;;;;;;;19.58;10.35;;;;;;;18.73;76.35;100594.94;5049930;28;20083;-56
2022/06/08 09:30:51;;;;;;;19.40;10.70;;;;;;;18.69;74.10;100592.06;5046559;28;20452;-55
2022/06/08 09:33:24;;;;;;;18.08;10.10;;;;;;;18.61;75.11;100598.69;5039049;28;20025;-57
2022/06/08 09:36:17;;;;;;;17.65;10.52;;;;;;;18.45;75.04;100592.34;5038675;28;20079;-55
2022/06/08 09:38:43;;;;;;;18.40;10.10;;;;;;;18.26;75.76;100596.75;5028396;28;20041;-57
2022/06/08 09:41:34;;;;;;;17.63;10.10;;;;;;;18.25;75.43;100603.50;5029856;28;20033;-55
2022/06/08 09:44:23;;;;;;;19.65;10.57;;;;;;;18.15;75.59;100598.47;5036989;28;20034;-54
2022/06/08 09:52:55;;;;;;;18.45;10.48;;;;;;;17.98;78.76;100605.25;5049890;28;20052;-55
2022/06/08 09:56:00;;;;;;;17.23;10.10;;;;;;;17.96;78.39;100602.84;5049542;28;20449;-53
2022/06/08 09:58:34;;;;;;;;;;;;;;;18.06;77.41;100616.28;5046231;28;20066;-55
2022/06/08 10:01:11;;;;;;;17.92;10.15;;;;;;;17.85;77.81;100608.16;5040034;28;19919;-55
2022/06/08 10:03:41;;;;;;;19.55;10.38;;;;;;;17.75;80.83;100617.88;5040204;28;20101;-55
2022/06/08 10:06:22;;;;;;;20.88;10.80;;;;;;;17.73;79.87;100611.03;5043025;28;20502;-54
2022/06/08 10:08:53;;;;;;;18.77;10.10;;;;;;;17.59;80.48;100617.06;5045783;28;20510;-55
2022/06/08 10:11:39;;;;;;;20.00;11.80;;;;;;;17.48;81.80;100596.41;5049068;28;20037;-55
2022/06/08 10:14:16;;;;;;;19.45;10.60;;;;;;;17.42;82.41;100613.47;5043366;28;20486;-55
2022/06/08 10:17:02;;;;;;;19.52;10.20;;;;;;;17.42;82.88;100599.47;5042677;28;20076;-55
2022/06/08 10:19:36;;;;;;;18.95;10.27;;;;;;;17.36;82.34;100609.28;5043621;28;20104;-55
2022/06/08 10:22:03;;;;;;;19.85;9.98;;;;;;;17.36;82.98;100609.28;5042769;28;20053;-55
2022/06/08 10:24:47;;;;;;;18.70;10.10;;;;;;;17.41;82.71;100605.41;5042018;28;20033;-52
2022/06/08 10:27:40;;;;;;;17.00;9.63;;;;;;;17.36;83.30;100608.47;5043854;28;20144;-56
2022/06/08 10:30:06;;;;;;;21.05;10.10;;;;;;;17.21;83.53;100618.47;5045678;28;20033;-54
2022/06/08 10:33:06;;;;;;;19.20;10.27;;;;;;;17.17;83.89;100612.78;5053213;28;20033;-55
2022/06/08 10:35:41;;;;;;;18.15;9.90;;;;;;;16.96;85.00;100608.22;4988753;28;20060;-53
2022/06/08 10:38:18;;;;;;;17.92;9.70;;;;;;;16.96;84.12;100607.38;5042630;28;20072;-53
2022/06/08 10:42:39;;;;;;;17.13;9.80;;;;;;;17.00;84.35;100613.91;5033028;28;20033;-55
2022/06/08 10:43:59;;;;;;;20.00;9.90;;;;;;;16.88;85.25;100611.13;5033057;28;20182;-55
2022/06/08 10:46:32;;;;;;;18.65;9.73;;;;;;;16.82;86.82;100621.72;5033018;28;20030;-55
2022/06/08 10:48:58;;;;;;;18.08;10.10;;;;;;;16.74;87.48;100612.34;5033086;28;20026;-55
2022/06/08 10:51:32;;;;;;;20.58;10.27;;;;;;;16.63;89.36;100617.59;5032636;28;20025;-55
2022/06/08 10:56:41;;;;;;;19.83;10.88;;;;;;;16.52;92.02;100611.69;5033077;28;20399;-57
2022/06/08 10:59:07;;;;;;;19.58;10.45;;;;;;;16.46;91.26;100613.13;5030855;28;20479;-55
2022/06/08 11:01:53;;;;;;;19.70;11.13;;;;;;;16.38;91.84;100611.28;5038522;28;20343;-56
2022/06/08 11:04:29;;;;;;;18.75;10.30;;;;;;;16.30;93.34;100615.81;5038772;28;20375;-56
2022/06/08 11:07:07;;;;;;;20.17;10.60;;;;;;;16.27;93.97;100599.75;5033901;28;20486;-57
2022/06/08 11:09:33;;;;;;;19.05;11.10;;;;;;;16.39;94.18;100604.50;5033607;28;20504;-56
2022/06/08 11:12:01;;;;;;;17.67;9.77;;;;;;;16.40;92.32;100606.13;5047911;28;20111;-57
2022/06/08 11:14:31;;;;;;;18.85;9.98;;;;;;;16.40;90.70;100605.31;5047158;28;20120;-56
2022/06/08 11:17:02;;;;;;;19.52;10.50;;;;;;;16.37;91.90;100596.47;5042981;28;20029;-56
2022/06/08 11:19:30;;;;;;;18.88;10.55;;;;;;;16.38;91.76;100598.09;5044503;28;20111;-55
2022/06/08 11:21:58;;;;;;;18.15;10.05;;;;;;;16.42;92.19;100591.84;5044191;28;20391;-56
2022/06/08 11:24:26;;;;;;;20.67;10.60;;;;;;;16.57;92.38;100582.72;5052139;28;20028;-55
2022/06/08 11:27:20;;;;;;;19.60;10.55;;;;;;;16.82;92.87;100591.00;5052212;28;20053;-55
2022/06/08 11:29:46;;;;;;;;;;;;;;;16.93;89.99;100574.56;5018104;28;20135;-56
2022/06/08 11:32:32;;;;;;;18.48;10.40;;;;;;;17.02;91.01;100578.03;5050895;28;20003;-56
2022/06/08 11:35:03;;;;;;;19.83;10.80;;;;;;;17.06;89.61;100573.34;5054045;28;20484;-56
2022/06/08 11:37:40;;;;;;;17.23;9.15;;;;;;;16.98;87.41;100563.13;5054065;28;20099;-57
2022/06/08 11:40:14;;;;;;;18.67;9.50;;;;;;;17.05;88.25;100568.91;5053951;28;20044;-56
2022/06/08 11:42:58;;;;;;;17.80;9.75;;;;;;;17.08;87.68;100567.41;5053898;28;20021;-55
2022/06/08 11:45:34;;;;;;;18.10;9.43;;;;;;;16.98;88.46;100555.59;5053919;28;20061;-56